sensor_id;sensor_type;location;lat;lon;timestamp;temperature;humidity
70867;HTU21D;58487;53.474;49.470;2022-08-18T00:01:20;21.42;68.46
70867;HTU21D;58487;53.474;49.470;2022-08-18T00:03:48;21.38;68.54
70867;HTU21D;58487;53.474;49.470;2022-08-18T00:06:18;21.38;67.56
70867;HTU21D;58487;53.474;49.470;2022-08-18T00:08:44;21.42;66.14
70867;HTU21D;58487;53.474;49.470;2022-08-18T00:11:10;21.47;67.90
70867;HTU21D;58487;53.474;49.470;2022-08-18T00:13:36;21.42;67.60
70867;HTU21D;58487;53.474;49.470;2022-08-18T00:16:02;21.36;68.77
70867;HTU21D;58487;53.474;49.470;2022-08-18T00:18:29;21.33;68.51
70867;HTU21D;58487;53.474;49.470;2022-08-18T00:20:55;21.36;65.59
70867;HTU21D;58487;53.474;49.470;2022-08-18T00:23:21;21.31;64.85
70867;HTU21D;58487;53.474;49.470;2022-08-18T00:25:48;21.33;63.78
70867;HTU21D;58487;53.474;49.470;2022-08-18T00:28:14;21.19;63.79
70867;HTU21D;58487;53.474;49.470;2022-08-18T00:30:40;21.16;65.34
70867;HTU21D;58487;53.474;49.470;2022-08-18T00:33:06;21.10;64.33
70867;HTU21D;58487;53.474;49.470;2022-08-18T00:35:36;21.14;63.48
70867;HTU21D;58487;53.474;49.470;2022-08-18T00:38:05;21.11;63.18
70867;HTU21D;58487;53.474;49.470;2022-08-18T00:40:44;21.14;65.01
70867;HTU21D;58487;53.474;49.470;2022-08-18T00:43:22;21.08;65.08
70867;HTU21D;58487;53.474;49.470;2022-08-18T00:45:50;21.05;64.79
70867;HTU21D;58487;53.474;49.470;2022-08-18T00:48:16;21.06;63.66
70867;HTU21D;58487;53.474;49.470;2022-08-18T00:50:56;21.01;65.13
70867;HTU21D;58487;53.474;49.470;2022-08-18T00:53:33;20.91;65.60
70867;HTU21D;58487;53.474;49.470;2022-08-18T00:56:06;20.89;66.42
70867;HTU21D;58487;53.474;49.470;2022-08-18T00:58:37;20.81;66.69
70867;HTU21D;58487;53.474;49.470;2022-08-18T01:01:05;20.79;65.98
70867;HTU21D;58487;53.474;49.470;2022-08-18T01:03:34;20.76;65.95
70867;HTU21D;58487;53.474;49.470;2022-08-18T01:06:25;20.79;62.82
70867;HTU21D;58487;53.474;49.470;2022-08-18T01:08:52;20.73;65.85
70867;HTU21D;58487;53.474;49.470;2022-08-18T01:11:19;20.65;65.21
70867;HTU21D;58487;53.474;49.470;2022-08-18T01:13:45;20.64;67.85
70867;HTU21D;58487;53.474;49.470;2022-08-18T01:16:11;20.59;69.36
70867;HTU21D;58487;53.474;49.470;2022-08-18T01:18:55;20.57;68.75
70867;HTU21D;58487;53.474;49.470;2022-08-18T01:21:44;20.49;69.21
70867;HTU21D;58487;53.474;49.470;2022-08-18T01:24:27;20.45;68.50
70867;HTU21D;58487;53.474;49.470;2022-08-18T01:27:14;20.44;67.80
70867;HTU21D;58487;53.474;49.470;2022-08-18T01:29:47;20.43;67.56
70867;HTU21D;58487;53.474;49.470;2022-08-18T01:32:16;20.43;67.88
70867;HTU21D;58487;53.474;49.470;2022-08-18T01:34:48;20.44;66.47
70867;HTU21D;58487;53.474;49.470;2022-08-18T01:37:21;20.35;68.26
70867;HTU21D;58487;53.474;49.470;2022-08-18T01:39:48;20.31;67.01
70867;HTU21D;58487;53.474;49.470;2022-08-18T01:42:15;20.26;69.16
70867;HTU21D;58487;53.474;49.470;2022-08-18T01:44:43;20.27;69.19
70867;HTU21D;58487;53.474;49.470;2022-08-18T01:47:10;20.28;66.96
70867;HTU21D;58487;53.474;49.470;2022-08-18T01:49:37;20.37;66.81
70867;HTU21D;58487;53.474;49.470;2022-08-18T01:52:15;20.33;67.32
70867;HTU21D;58487;53.474;49.470;2022-08-18T01:54:46;20.41;67.46
70867;HTU21D;58487;53.474;49.470;2022-08-18T01:57:13;20.40;67.44
70867;HTU21D;58487;53.474;49.470;2022-08-18T01:59:40;20.47;68.68
70867;HTU21D;58487;53.474;49.470;2022-08-18T02:02:08;20.49;66.09
70867;HTU21D;58487;53.474;49.470;2022-08-18T02:04:35;20.49;62.58
70867;HTU21D;58487;53.474;49.470;2022-08-18T02:07:06;20.49;63.07
70867;HTU21D;58487;53.474;49.470;2022-08-18T02:09:33;20.53;62.63
70867;HTU21D;58487;53.474;49.470;2022-08-18T02:11:59;20.41;63.08
70867;HTU21D;58487;53.474;49.470;2022-08-18T02:14:26;20.28;63.56
70867;HTU21D;58487;53.474;49.470;2022-08-18T02:16:52;20.18;63.90
70867;HTU21D;58487;53.474;49.470;2022-08-18T02:19:17;20.17;63.80
70867;HTU21D;58487;53.474;49.470;2022-08-18T02:21:43;20.05;64.83
70867;HTU21D;58487;53.474;49.470;2022-08-18T02:24:09;20.03;65.83
70867;HTU21D;58487;53.474;49.470;2022-08-18T02:26:35;20.02;64.67
70867;HTU21D;58487;53.474;49.470;2022-08-18T02:29:01;20.03;67.18
70867;HTU21D;58487;53.474;49.470;2022-08-18T02:31:27;20.02;66.09
70867;HTU21D;58487;53.474;49.470;2022-08-18T02:33:54;20.03;68.81
70867;HTU21D;58487;53.474;49.470;2022-08-18T02:36:20;20.04;67.50
70867;HTU21D;58487;53.474;49.470;2022-08-18T02:38:46;20.09;68.04
70867;HTU21D;58487;53.474;49.470;2022-08-18T02:41:13;20.19;66.35
70867;HTU21D;58487;53.474;49.470;2022-08-18T02:43:40;20.24;68.87
70867;HTU21D;58487;53.474;49.470;2022-08-18T02:46:07;20.22;70.29
70867;HTU21D;58487;53.474;49.470;2022-08-18T02:48:33;20.17;69.34
70867;HTU21D;58487;53.474;49.470;2022-08-18T02:53:29;20.11;67.19
70867;HTU21D;58487;53.474;49.470;2022-08-18T02:56:05;20.14;69.93
70867;HTU21D;58487;53.474;49.470;2022-08-18T02:59:05;20.12;67.36
70867;HTU21D;58487;53.474;49.470;2022-08-18T03:01:37;20.15;65.15
70867;HTU21D;58487;53.474;49.470;2022-08-18T03:04:06;20.20;62.98
70867;HTU21D;58487;53.474;49.470;2022-08-18T03:06:33;20.19;64.61
70867;HTU21D;58487;53.474;49.470;2022-08-18T03:09:00;20.24;63.72
70867;HTU21D;58487;53.474;49.470;2022-08-18T03:11:28;20.24;62.74
70867;HTU21D;58487;53.474;49.470;2022-08-18T03:13:55;20.24;64.15
70867;HTU21D;58487;53.474;49.470;2022-08-18T03:16:22;20.29;63.90
70867;HTU21D;58487;53.474;49.470;2022-08-18T03:18:50;20.37;63.05
70867;HTU21D;58487;53.474;49.470;2022-08-18T03:21:21;20.41;63.95
70867;HTU21D;58487;53.474;49.470;2022-08-18T03:23:48;20.51;65.06
70867;HTU21D;58487;53.474;49.470;2022-08-18T03:26:17;20.60;65.89
70867;HTU21D;58487;53.474;49.470;2022-08-18T03:28:46;20.60;65.63
70867;HTU21D;58487;53.474;49.470;2022-08-18T03:31:14;20.69;65.25
70867;HTU21D;58487;53.474;49.470;2022-08-18T03:33:42;20.75;65.95
70867;HTU21D;58487;53.474;49.470;2022-08-18T03:36:12;20.88;64.55
70867;HTU21D;58487;53.474;49.470;2022-08-18T03:38:39;20.99;63.41
70867;HTU21D;58487;53.474;49.470;2022-08-18T03:41:07;21.08;64.39
70867;HTU21D;58487;53.474;49.470;2022-08-18T03:43:34;21.11;62.71
70867;HTU21D;58487;53.474;49.470;2022-08-18T03:46:01;21.10;61.99
70867;HTU21D;58487;53.474;49.470;2022-08-18T03:48:28;21.18;60.43
70867;HTU21D;58487;53.474;49.470;2022-08-18T03:50:54;21.16;60.49
70867;HTU21D;58487;53.474;49.470;2022-08-18T03:53:20;21.25;61.23
70867;HTU21D;58487;53.474;49.470;2022-08-18T03:55:46;21.35;60.30
70867;HTU21D;58487;53.474;49.470;2022-08-18T03:58:12;21.39;59.77
70867;HTU21D;58487;53.474;49.470;2022-08-18T04:00:40;21.48;60.01
70867;HTU21D;58487;53.474;49.470;2022-08-18T04:03:06;21.48;57.96
70867;HTU21D;58487;53.474;49.470;2022-08-18T04:05:32;21.57;58.87
70867;HTU21D;58487;53.474;49.470;2022-08-18T04:08:00;21.60;59.60
70867;HTU21D;58487;53.474;49.470;2022-08-18T04:10:28;21.64;59.40
70867;HTU21D;58487;53.474;49.470;2022-08-18T04:12:54;21.62;60.31
70867;HTU21D;58487;53.474;49.470;2022-08-18T04:15:20;21.61;59.02
70867;HTU21D;58487;53.474;49.470;2022-08-18T04:17:46;21.64;59.13
70867;HTU21D;58487;53.474;49.470;2022-08-18T04:20:12;21.69;58.58
70867;HTU21D;58487;53.474;49.470;2022-08-18T04:22:39;21.84;58.51
70867;HTU21D;58487;53.474;49.470;2022-08-18T04:25:06;21.73;57.60
70867;HTU21D;58487;53.474;49.470;2022-08-18T04:27:36;21.76;57.27
70867;HTU21D;58487;53.474;49.470;2022-08-18T04:30:05;21.67;60.48
70867;HTU21D;58487;53.474;49.470;2022-08-18T04:32:31;21.74;57.51
70867;HTU21D;58487;53.474;49.470;2022-08-18T04:34:57;21.72;59.51
70867;HTU21D;58487;53.474;49.470;2022-08-18T04:37:23;21.59;58.96
70867;HTU21D;58487;53.474;49.470;2022-08-18T04:39:49;21.50;62.11
70867;HTU21D;58487;53.474;49.470;2022-08-18T04:42:15;21.58;60.18
70867;HTU21D;58487;53.474;49.470;2022-08-18T04:44:41;21.55;62.71
70867;HTU21D;58487;53.474;49.470;2022-08-18T04:47:08;21.57;60.01
70867;HTU21D;58487;53.474;49.470;2022-08-18T04:49:35;21.67;63.21
70867;HTU21D;58487;53.474;49.470;2022-08-18T04:52:04;21.90;61.63
70867;HTU21D;58487;53.474;49.470;2022-08-18T04:54:49;21.94;62.53
70867;HTU21D;58487;53.474;49.470;2022-08-18T04:57:17;22.02;61.70
70867;HTU21D;58487;53.474;49.470;2022-08-18T04:59:46;22.14;60.22
70867;HTU21D;58487;53.474;49.470;2022-08-18T05:02:14;22.28;60.27
70867;HTU21D;58487;53.474;49.470;2022-08-18T05:04:42;22.34;59.61
70867;HTU21D;58487;53.474;49.470;2022-08-18T05:07:13;22.36;58.80
70867;HTU21D;58487;53.474;49.470;2022-08-18T05:09:40;22.37;60.12
70867;HTU21D;58487;53.474;49.470;2022-08-18T05:12:08;22.31;57.68
70867;HTU21D;58487;53.474;49.470;2022-08-18T05:14:34;22.40;59.97
70867;HTU21D;58487;53.474;49.470;2022-08-18T05:17:01;22.44;60.96
70867;HTU21D;58487;53.474;49.470;2022-08-18T05:19:28;22.47;60.93
70867;HTU21D;58487;53.474;49.470;2022-08-18T05:21:57;22.46;60.64
70867;HTU21D;58487;53.474;49.470;2022-08-18T05:24:24;22.46;59.93
70867;HTU21D;58487;53.474;49.470;2022-08-18T05:26:52;22.49;60.49
70867;HTU21D;58487;53.474;49.470;2022-08-18T05:29:22;22.50;61.97
70867;HTU21D;58487;53.474;49.470;2022-08-18T05:31:49;22.65;62.63
70867;HTU21D;58487;53.474;49.470;2022-08-18T05:34:17;22.67;63.14
70867;HTU21D;58487;53.474;49.470;2022-08-18T05:39:37;22.87;62.02
70867;HTU21D;58487;53.474;49.470;2022-08-18T05:42:11;22.84;64.03
70867;HTU21D;58487;53.474;49.470;2022-08-18T05:44:45;22.93;63.04
70867;HTU21D;58487;53.474;49.470;2022-08-18T05:47:29;22.98;62.20
70867;HTU21D;58487;53.474;49.470;2022-08-18T05:50:06;23.08;58.64
70867;HTU21D;58487;53.474;49.470;2022-08-18T05:52:37;23.08;61.53
70867;HTU21D;58487;53.474;49.470;2022-08-18T05:58:29;23.27;59.85
70867;HTU21D;58487;53.474;49.470;2022-08-18T06:01:01;23.36;59.83
70867;HTU21D;58487;53.474;49.470;2022-08-18T06:03:33;23.38;58.33
70867;HTU21D;58487;53.474;49.470;2022-08-18T06:06:07;23.23;58.80
70867;HTU21D;58487;53.474;49.470;2022-08-18T06:08:45;23.31;58.82
70867;HTU21D;58487;53.474;49.470;2022-08-18T06:11:12;23.46;58.05
70867;HTU21D;58487;53.474;49.470;2022-08-18T06:13:40;23.42;58.29
70867;HTU21D;58487;53.474;49.470;2022-08-18T06:16:22;23.41;58.57
70867;HTU21D;58487;53.474;49.470;2022-08-18T06:24:35;23.57;57.48
70867;HTU21D;58487;53.474;49.470;2022-08-18T06:27:27;23.66;57.79
70867;HTU21D;58487;53.474;49.470;2022-08-18T06:43:49;24.04;58.80
70867;HTU21D;58487;53.474;49.470;2022-08-18T06:46:22;24.14;58.46
70867;HTU21D;58487;53.474;49.470;2022-08-18T06:48:55;24.17;59.77
70867;HTU21D;58487;53.474;49.470;2022-08-18T06:51:26;24.15;58.85
70867;HTU21D;58487;53.474;49.470;2022-08-18T06:54:23;24.19;57.79
70867;HTU21D;58487;53.474;49.470;2022-08-18T06:56:53;24.20;58.03
70867;HTU21D;58487;53.474;49.470;2022-08-18T06:59:31;24.20;59.53
70867;HTU21D;58487;53.474;49.470;2022-08-18T07:02:08;24.39;57.13
70867;HTU21D;58487;53.474;49.470;2022-08-18T07:05:00;24.42;56.97
70867;HTU21D;58487;53.474;49.470;2022-08-18T07:07:36;24.48;57.82
70867;HTU21D;58487;53.474;49.470;2022-08-18T07:10:06;24.48;57.65
70867;HTU21D;58487;53.474;49.470;2022-08-18T07:12:52;24.38;56.81
70867;HTU21D;58487;53.474;49.470;2022-08-18T07:15:30;24.44;60.25
70867;HTU21D;58487;53.474;49.470;2022-08-18T07:18:04;24.43;56.85
70867;HTU21D;58487;53.474;49.470;2022-08-18T07:20:56;24.56;55.63
70867;HTU21D;58487;53.474;49.470;2022-08-18T07:23:35;24.69;55.83
70867;HTU21D;58487;53.474;49.470;2022-08-18T07:26:14;24.77;56.31
70867;HTU21D;58487;53.474;49.470;2022-08-18T07:28:50;24.76;57.71
70867;HTU21D;58487;53.474;49.470;2022-08-18T07:46:30;25.40;55.87
70867;HTU21D;58487;53.474;49.470;2022-08-18T07:49:00;25.53;57.86
70867;HTU21D;58487;53.474;49.470;2022-08-18T07:51:42;25.59;56.50
70867;HTU21D;58487;53.474;49.470;2022-08-18T08:11:37;25.84;60.70
70867;HTU21D;58487;53.474;49.470;2022-08-18T08:13:57;25.98;56.84
70867;HTU21D;58487;53.474;49.470;2022-08-18T08:16:48;26.07;57.33
70867;HTU21D;58487;53.474;49.470;2022-08-18T08:19:38;26.11;54.24
70867;HTU21D;58487;53.474;49.470;2022-08-18T08:22:11;26.06;57.62
70867;HTU21D;58487;53.474;49.470;2022-08-18T08:30:28;26.03;57.35
70867;HTU21D;58487;53.474;49.470;2022-08-18T08:33:44;26.16;57.48
70867;HTU21D;58487;53.474;49.470;2022-08-18T08:35:55;26.33;56.87
70867;HTU21D;58487;53.474;49.470;2022-08-18T08:41:58;26.53;54.67
70867;HTU21D;58487;53.474;49.470;2022-08-18T08:44:29;26.55;55.98
70867;HTU21D;58487;53.474;49.470;2022-08-18T08:49:56;26.37;56.87
70867;HTU21D;58487;53.474;49.470;2022-08-18T08:52:51;26.45;54.55
70867;HTU21D;58487;53.474;49.470;2022-08-18T08:55:25;26.50;55.14
70867;HTU21D;58487;53.474;49.470;2022-08-18T09:00:34;26.69;57.19
70867;HTU21D;58487;53.474;49.470;2022-08-18T09:03:05;26.80;56.76
70867;HTU21D;58487;53.474;49.470;2022-08-18T09:17:28;27.29;57.81
70867;HTU21D;58487;53.474;49.470;2022-08-18T09:23:12;27.56;59.69
70867;HTU21D;58487;53.474;49.470;2022-08-18T09:25:44;27.55;55.52
70867;HTU21D;58487;53.474;49.470;2022-08-18T09:28:17;27.88;53.22
70867;HTU21D;58487;53.474;49.470;2022-08-18T09:41:59;27.90;55.34
70867;HTU21D;58487;53.474;49.470;2022-08-18T09:57:29;29.07;53.73
70867;HTU21D;58487;53.474;49.470;2022-08-18T10:10:33;29.44;55.26
70867;HTU21D;58487;53.474;49.470;2022-08-18T10:21:17;29.04;53.27
70867;HTU21D;58487;53.474;49.470;2022-08-18T10:31:22;28.47;52.26
70867;HTU21D;58487;53.474;49.470;2022-08-18T10:34:37;28.28;53.62
70867;HTU21D;58487;53.474;49.470;2022-08-18T10:37:17;28.42;51.89
70867;HTU21D;58487;53.474;49.470;2022-08-18T10:42:42;28.47;50.96
70867;HTU21D;58487;53.474;49.470;2022-08-18T10:47:39;28.99;51.55
70867;HTU21D;58487;53.474;49.470;2022-08-18T10:50:18;28.71;51.42
70867;HTU21D;58487;53.474;49.470;2022-08-18T10:52:57;28.52;54.67
70867;HTU21D;58487;53.474;49.470;2022-08-18T10:55:47;28.35;53.49
70867;HTU21D;58487;53.474;49.470;2022-08-18T11:03:59;28.75;52.06
70867;HTU21D;58487;53.474;49.470;2022-08-18T11:06:27;29.23;52.40
70867;HTU21D;58487;53.474;49.470;2022-08-18T11:08:59;29.42;50.43
70867;HTU21D;58487;53.474;49.470;2022-08-18T11:11:35;29.48;52.05
70867;HTU21D;58487;53.474;49.470;2022-08-18T11:14:26;29.90;52.20
70867;HTU21D;58487;53.474;49.470;2022-08-18T11:19:42;29.80;50.71
70867;HTU21D;58487;53.474;49.470;2022-08-18T11:22:30;29.70;52.01
70867;HTU21D;58487;53.474;49.470;2022-08-18T11:24:57;29.62;50.05
70867;HTU21D;58487;53.474;49.470;2022-08-18T11:27:32;29.43;50.93
70867;HTU21D;58487;53.474;49.470;2022-08-18T11:30:04;29.04;51.60
70867;HTU21D;58487;53.474;49.470;2022-08-18T11:32:33;28.83;51.59
70867;HTU21D;58487;53.474;49.470;2022-08-18T11:58:57;28.59;50.63
70867;HTU21D;58487;53.474;49.470;2022-08-18T12:01:31;28.65;51.05
70867;HTU21D;58487;53.474;49.470;2022-08-18T12:06:55;28.52;51.01
70867;HTU21D;58487;53.474;49.470;2022-08-18T12:09:46;28.47;51.33
70867;HTU21D;58487;53.474;49.470;2022-08-18T12:17:20;28.75;53.88
70867;HTU21D;58487;53.474;49.470;2022-08-18T12:19:47;28.65;54.90
70867;HTU21D;58487;53.474;49.470;2022-08-18T12:22:18;28.58;53.06
70867;HTU21D;58487;53.474;49.470;2022-08-18T12:24:45;28.70;53.27
70867;HTU21D;58487;53.474;49.470;2022-08-18T12:27:17;28.82;50.47
70867;HTU21D;58487;53.474;49.470;2022-08-18T12:29:44;28.64;52.73
70867;HTU21D;58487;53.474;49.470;2022-08-18T12:32:11;28.67;51.47
70867;HTU21D;58487;53.474;49.470;2022-08-18T12:34:37;28.60;51.68
70867;HTU21D;58487;53.474;49.470;2022-08-18T12:37:04;28.59;54.10
70867;HTU21D;58487;53.474;49.470;2022-08-18T12:39:33;28.60;52.19
70867;HTU21D;58487;53.474;49.470;2022-08-18T12:42:00;28.48;53.90
70867;HTU21D;58487;53.474;49.470;2022-08-18T12:44:27;28.67;52.81
70867;HTU21D;58487;53.474;49.470;2022-08-18T12:46:53;28.65;51.44
70867;HTU21D;58487;53.474;49.470;2022-08-18T12:49:22;28.28;53.71
70867;HTU21D;58487;53.474;49.470;2022-08-18T12:51:50;28.10;55.94
70867;HTU21D;58487;53.474;49.470;2022-08-18T12:54:17;27.98;56.39
70867;HTU21D;58487;53.474;49.470;2022-08-18T12:56:46;27.84;58.46
70867;HTU21D;58487;53.474;49.470;2022-08-18T12:59:13;27.87;57.71
70867;HTU21D;58487;53.474;49.470;2022-08-18T13:01:39;27.93;58.17
70867;HTU21D;58487;53.474;49.470;2022-08-18T13:04:06;27.91;59.54
70867;HTU21D;58487;53.474;49.470;2022-08-18T13:06:36;27.87;61.37
70867;HTU21D;58487;53.474;49.470;2022-08-18T13:09:03;28.09;60.68
70867;HTU21D;58487;53.474;49.470;2022-08-18T13:11:29;28.13;61.02
70867;HTU21D;58487;53.474;49.470;2022-08-18T13:13:55;28.06;60.58
70867;HTU21D;58487;53.474;49.470;2022-08-18T13:16:23;28.11;61.76
70867;HTU21D;58487;53.474;49.470;2022-08-18T13:18:49;28.20;58.55
70867;HTU21D;58487;53.474;49.470;2022-08-18T13:21:15;28.27;58.54
70867;HTU21D;58487;53.474;49.470;2022-08-18T13:23:43;28.33;58.27
70867;HTU21D;58487;53.474;49.470;2022-08-18T13:26:17;28.23;57.29
70867;HTU21D;58487;53.474;49.470;2022-08-18T13:28:46;28.17;57.19
70867;HTU21D;58487;53.474;49.470;2022-08-18T13:31:12;28.19;57.04
70867;HTU21D;58487;53.474;49.470;2022-08-18T13:33:38;28.19;56.03
70867;HTU21D;58487;53.474;49.470;2022-08-18T13:36:06;28.20;56.52
70867;HTU21D;58487;53.474;49.470;2022-08-18T13:38:32;28.19;57.76
70867;HTU21D;58487;53.474;49.470;2022-08-18T13:40:59;28.30;56.44
70867;HTU21D;58487;53.474;49.470;2022-08-18T13:43:32;28.43;54.23
70867;HTU21D;58487;53.474;49.470;2022-08-18T13:45:58;28.44;57.24
70867;HTU21D;58487;53.474;49.470;2022-08-18T13:48:24;28.38;58.99
70867;HTU21D;58487;53.474;49.470;2022-08-18T13:50:54;28.40;57.42
70867;HTU21D;58487;53.474;49.470;2022-08-18T13:53:23;28.53;54.97
70867;HTU21D;58487;53.474;49.470;2022-08-18T13:55:50;28.35;55.00
70867;HTU21D;58487;53.474;49.470;2022-08-18T13:58:17;28.28;56.71
70867;HTU21D;58487;53.474;49.470;2022-08-18T14:00:44;28.23;56.64
70867;HTU21D;58487;53.474;49.470;2022-08-18T14:03:11;28.13;57.00
70867;HTU21D;58487;53.474;49.470;2022-08-18T14:05:37;28.09;54.07
70867;HTU21D;58487;53.474;49.470;2022-08-18T14:08:04;28.03;53.66
70867;HTU21D;58487;53.474;49.470;2022-08-18T14:10:31;28.02;59.47
70867;HTU21D;58487;53.474;49.470;2022-08-18T14:12:59;27.93;57.92
70867;HTU21D;58487;53.474;49.470;2022-08-18T14:15:26;27.83;58.45
70867;HTU21D;58487;53.474;49.470;2022-08-18T14:17:52;27.82;59.05
70867;HTU21D;58487;53.474;49.470;2022-08-18T14:20:18;27.70;57.28
70867;HTU21D;58487;53.474;49.470;2022-08-18T14:23:03;27.67;58.13
70867;HTU21D;58487;53.474;49.470;2022-08-18T14:25:48;27.63;57.74
70867;HTU21D;58487;53.474;49.470;2022-08-18T14:28:33;27.55;56.95
70867;HTU21D;58487;53.474;49.470;2022-08-18T14:31:01;27.53;58.94
70867;HTU21D;58487;53.474;49.470;2022-08-18T14:33:31;27.43;56.18
70867;HTU21D;58487;53.474;49.470;2022-08-18T14:35:57;27.39;59.88
70867;HTU21D;58487;53.474;49.470;2022-08-18T14:38:24;27.35;58.16
70867;HTU21D;58487;53.474;49.470;2022-08-18T14:40:50;27.37;57.26
70867;HTU21D;58487;53.474;49.470;2022-08-18T14:43:19;27.35;59.43
70867;HTU21D;58487;53.474;49.470;2022-08-18T14:45:47;27.28;60.06
70867;HTU21D;58487;53.474;49.470;2022-08-18T14:48:17;27.23;62.12
70867;HTU21D;58487;53.474;49.470;2022-08-18T14:50:47;27.23;59.40
70867;HTU21D;58487;53.474;49.470;2022-08-18T14:53:16;27.16;62.36
70867;HTU21D;58487;53.474;49.470;2022-08-18T14:55:46;27.16;60.44
70867;HTU21D;58487;53.474;49.470;2022-08-18T14:58:13;27.12;60.67
70867;HTU21D;58487;53.474;49.470;2022-08-18T15:00:39;27.15;57.35
70867;HTU21D;58487;53.474;49.470;2022-08-18T15:03:05;27.09;59.44
70867;HTU21D;58487;53.474;49.470;2022-08-18T15:05:32;27.08;57.27
70867;HTU21D;58487;53.474;49.470;2022-08-18T15:07:59;27.10;59.03
70867;HTU21D;58487;53.474;49.470;2022-08-18T15:10:28;27.05;58.45
70867;HTU21D;58487;53.474;49.470;2022-08-18T15:12:55;27.05;58.45
70867;HTU21D;58487;53.474;49.470;2022-08-18T15:15:22;26.98;58.72
70867;HTU21D;58487;53.474;49.470;2022-08-18T15:17:50;26.94;58.14
70867;HTU21D;58487;53.474;49.470;2022-08-18T15:20:16;26.90;56.77
70867;HTU21D;58487;53.474;49.470;2022-08-18T15:22:44;26.87;56.67
70867;HTU21D;58487;53.474;49.470;2022-08-18T15:25:29;26.80;57.46
70867;HTU21D;58487;53.474;49.470;2022-08-18T15:28:22;26.76;57.12
70867;HTU21D;58487;53.474;49.470;2022-08-18T15:30:50;26.71;57.37
70867;HTU21D;58487;53.474;49.470;2022-08-18T15:33:17;26.62;60.72
70867;HTU21D;58487;53.474;49.470;2022-08-18T15:35:45;26.56;60.09
70867;HTU21D;58487;53.474;49.470;2022-08-18T15:38:20;26.48;61.40
70867;HTU21D;58487;53.474;49.470;2022-08-18T15:41:00;26.42;60.00
70867;HTU21D;58487;53.474;49.470;2022-08-18T15:43:30;26.40;59.13
70867;HTU21D;58487;53.474;49.470;2022-08-18T15:45:58;26.36;58.81
70867;HTU21D;58487;53.474;49.470;2022-08-18T15:48:26;26.31;57.88
70867;HTU21D;58487;53.474;49.470;2022-08-18T15:50:53;26.31;59.53
70867;HTU21D;58487;53.474;49.470;2022-08-18T15:53:22;26.24;59.30
70867;HTU21D;58487;53.474;49.470;2022-08-18T15:55:50;26.12;59.99
70867;HTU21D;58487;53.474;49.470;2022-08-18T15:58:16;26.13;59.79
70867;HTU21D;58487;53.474;49.470;2022-08-18T16:00:45;26.02;62.21
70867;HTU21D;58487;53.474;49.470;2022-08-18T16:03:13;25.92;60.23
70867;HTU21D;58487;53.474;49.470;2022-08-18T16:05:50;25.86;60.38
70867;HTU21D;58487;53.474;49.470;2022-08-18T16:08:17;25.81;60.94
70867;HTU21D;58487;53.474;49.470;2022-08-18T16:10:44;25.77;61.47
70867;HTU21D;58487;53.474;49.470;2022-08-18T16:13:10;25.76;61.60
70867;HTU21D;58487;53.474;49.470;2022-08-18T16:15:41;25.69;62.60
70867;HTU21D;58487;53.474;49.470;2022-08-18T16:18:08;25.71;60.74
70867;HTU21D;58487;53.474;49.470;2022-08-18T16:20:35;25.64;62.22
70867;HTU21D;58487;53.474;49.470;2022-08-18T16:23:02;25.59;60.85
70867;HTU21D;58487;53.474;49.470;2022-08-18T16:25:28;25.50;62.70
70867;HTU21D;58487;53.474;49.470;2022-08-18T16:27:57;25.44;65.82
70867;HTU21D;58487;53.474;49.470;2022-08-18T16:30:25;25.39;64.86
70867;HTU21D;58487;53.474;49.470;2022-08-18T16:32:51;25.30;64.27
70867;HTU21D;58487;53.474;49.470;2022-08-18T16:45:02;25.05;62.89
70867;HTU21D;58487;53.474;49.470;2022-08-18T16:47:28;25.08;59.26
70867;HTU21D;58487;53.474;49.470;2022-08-18T16:49:56;25.02;59.71
70867;HTU21D;58487;53.474;49.470;2022-08-18T16:52:22;24.93;60.09
70867;HTU21D;58487;53.474;49.470;2022-08-18T16:54:54;24.87;61.21
70867;HTU21D;58487;53.474;49.470;2022-08-18T16:57:20;24.82;64.60
70867;HTU21D;58487;53.474;49.470;2022-08-18T17:00:06;24.83;64.26
70867;HTU21D;58487;53.474;49.470;2022-08-18T17:02:51;24.78;61.20
70867;HTU21D;58487;53.474;49.470;2022-08-18T17:05:36;24.77;62.14
70867;HTU21D;58487;53.474;49.470;2022-08-18T17:08:02;24.73;62.57
70867;HTU21D;58487;53.474;49.470;2022-08-18T17:10:30;24.63;64.43
70867;HTU21D;58487;53.474;49.470;2022-08-18T17:13:03;24.55;64.47
70867;HTU21D;58487;53.474;49.470;2022-08-18T17:15:30;24.50;62.47
70867;HTU21D;58487;53.474;49.470;2022-08-18T17:17:57;24.46;62.58
70867;HTU21D;58487;53.474;49.470;2022-08-18T17:20:23;24.40;61.71
70867;HTU21D;58487;53.474;49.470;2022-08-18T17:22:49;24.33;63.81
70867;HTU21D;58487;53.474;49.470;2022-08-18T17:25:19;24.30;61.14
70867;HTU21D;58487;53.474;49.470;2022-08-18T17:27:47;24.26;60.45
70867;HTU21D;58487;53.474;49.470;2022-08-18T17:30:17;24.19;63.58
70867;HTU21D;58487;53.474;49.470;2022-08-18T17:32:49;24.15;64.23
70867;HTU21D;58487;53.474;49.470;2022-08-18T17:35:32;24.04;64.01
70867;HTU21D;58487;53.474;49.470;2022-08-18T17:38:03;23.97;61.55
70867;HTU21D;58487;53.474;49.470;2022-08-18T17:40:39;23.87;61.87
70867;HTU21D;58487;53.474;49.470;2022-08-18T17:43:11;23.74;61.26
70867;HTU21D;58487;53.474;49.470;2022-08-18T17:45:38;23.66;62.47
70867;HTU21D;58487;53.474;49.470;2022-08-18T17:48:21;23.65;63.29
70867;HTU21D;58487;53.474;49.470;2022-08-18T17:51:22;23.54;61.95
70867;HTU21D;58487;53.474;49.470;2022-08-18T17:54:02;23.51;62.02
70867;HTU21D;58487;53.474;49.470;2022-08-18T17:56:39;23.47;59.99
70867;HTU21D;58487;53.474;49.470;2022-08-18T17:59:11;23.41;62.34
70867;HTU21D;58487;53.474;49.470;2022-08-18T18:01:38;23.43;58.03
70867;HTU21D;58487;53.474;49.470;2022-08-18T18:04:07;23.39;55.16
70867;HTU21D;58487;53.474;49.470;2022-08-18T18:09:10;23.20;64.18
70867;HTU21D;58487;53.474;49.470;2022-08-18T18:11:41;23.13;59.62
70867;HTU21D;58487;53.474;49.470;2022-08-18T18:17:17;23.10;61.04
70867;HTU21D;58487;53.474;49.470;2022-08-18T18:19:46;23.05;59.72
70867;HTU21D;58487;53.474;49.470;2022-08-18T18:24:49;22.96;61.64
70867;HTU21D;58487;53.474;49.470;2022-08-18T18:27:56;22.91;61.01
70867;HTU21D;58487;53.474;49.470;2022-08-18T18:32:55;22.84;62.72
70867;HTU21D;58487;53.474;49.470;2022-08-18T18:37:59;22.81;62.97
70867;HTU21D;58487;53.474;49.470;2022-08-18T18:40:38;22.71;62.83
70867;HTU21D;58487;53.474;49.470;2022-08-18T18:51:40;22.63;64.21
70867;HTU21D;58487;53.474;49.470;2022-08-18T18:54:28;22.62;63.27
70867;HTU21D;58487;53.474;49.470;2022-08-18T18:56:57;22.60;63.11
70867;HTU21D;58487;53.474;49.470;2022-08-18T19:02:57;22.49;62.53
70867;HTU21D;58487;53.474;49.470;2022-08-18T19:05:38;22.43;62.16
70867;HTU21D;58487;53.474;49.470;2022-08-18T19:13:37;22.44;60.36